Pagina principale
METAR-TAF:

METAR-TAF

Aeroporti :

Aeroporto Internazionale del Kuwait

Madinat al-Kuwait, Kuwait

latitudine: 29-13N, longitudine: 047-59E, altezza: 55 m

Osservazione

Il bollettino è stato emesso 27 minuti fa, alle 12:59 UTC
Vento 11 kt da sud-est
Temperature 21°C
Umidità 64%
Pressione 1019 hPa
Visibilità 10 km o più
nessuna nube inferiore a 1500 m e nessun cumulonembo

METAR: OKBK 171259Z 14011KT CAVOK 21/14 Q1019 NOSIG

Ora: 16:26 (13:26 UTC)

Previsione

Il bollettino è stato emesso 2 ore e 41 minuti fa, alle 10:45 UTC
Previsione valida dal 17 alle 12 UTC al 18 alle 18 UTC
Vento 8 kt da sud con raffiche fino a 18 kt
Visibilità: 7000 m
Poco nuvoloso ad un'altezza di 3000 ft
Nuvoloso ad un'altezza di 8000 ft
Temporaneamente
dal 17 alle 21 UTC al 18 alle 06 UTC
Vento 3 kt da direzioni variabili
Visibilità: 3000 m

TAF: OKBK 171045Z 1712/1818 17008G18KT 7000 FEW030 BKN080 TEMPO 1721/1806 VRB03KT 3000 RA/BR

Osservazioni e previsioni meteorologiche di più di 4000 aeroporti (messaggi METAR e TAF).

Le stazioni disponibili sono rappresentate dai dischi gialli e rossi sulla carta.

Puntare il mouse per vedere il nome della stazione.

Clicca sopra per visualizzare le osservazioni e previsioni meteorologiche.

Per cambiare la mappa : fare clic sui pulsanti verdi con una croce nera per ingrandire, il pulsante verde con un trattino per diminuire, o sulla freccia verde per le mappe adiacenti.


METAR-TAF: